createdAt,value
2018-07-05T00:00:51.792Z,95.50
2018-07-05T00:03:38.965Z,96.40
2018-07-05T00:06:28.044Z,97.30
2018-07-05T00:09:15.780Z,97.90
2018-07-05T00:12:03.876Z,98.10
2018-07-05T00:14:51.324Z,98.50
2018-07-05T00:20:20.463Z,99.30
2018-07-05T00:23:07.951Z,99.70
2018-07-05T00:25:55.603Z,99.90
2018-07-05T00:28:43.313Z,99.90
2018-07-05T00:31:31.567Z,99.90
2018-07-05T00:34:19.170Z,99.90
2018-07-05T00:37:06.637Z,99.90
2018-07-05T00:39:54.255Z,99.90
2018-07-05T00:42:41.554Z,99.90
2018-07-05T00:45:28.884Z,99.90
2018-07-05T00:48:16.111Z,99.90
2018-07-05T00:51:04.734Z,99.90
2018-07-05T00:56:35.317Z,99.90
2018-07-05T00:59:22.166Z,99.90
2018-07-05T01:02:11.826Z,99.90
2018-07-05T01:04:58.966Z,99.90
2018-07-05T01:07:46.530Z,99.90
2018-07-05T01:10:34.051Z,99.90
2018-07-05T01:13:21.543Z,99.90
2018-07-05T01:16:08.727Z,99.90
2018-07-05T01:18:56.086Z,99.90
2018-07-05T01:21:43.139Z,99.90
2018-07-05T01:24:30.745Z,99.90
2018-07-05T01:27:18.630Z,99.90
2018-07-05T01:30:06.154Z,99.90
2018-07-05T01:32:53.278Z,99.90
2018-07-05T01:35:40.613Z,99.90
2018-07-05T01:38:27.733Z,99.90
2018-07-05T01:41:15.691Z,99.90
2018-07-05T01:44:02.765Z,99.90
2018-07-05T01:46:51.001Z,99.90
2018-07-05T01:49:38.105Z,99.90
2018-07-05T01:52:26.866Z,99.90
2018-07-05T01:55:14.198Z,99.90
2018-07-05T01:58:02.501Z,99.90
2018-07-05T02:00:50.201Z,99.90
2018-07-05T02:03:37.843Z,99.90
2018-07-05T02:06:25.079Z,99.90
2018-07-05T02:09:13.252Z,99.90
2018-07-05T02:12:00.585Z,99.90
2018-07-05T02:14:48.368Z,99.90
2018-07-05T02:17:35.608Z,99.90
2018-07-05T02:20:24.211Z,99.90
2018-07-05T02:23:11.338Z,99.90
2018-07-05T02:25:58.816Z,99.90
2018-07-05T02:28:45.897Z,99.90
2018-07-05T02:31:34.273Z,99.90
2018-07-05T02:34:21.230Z,99.90
2018-07-05T02:37:12.490Z,99.90
2018-07-05T02:39:59.666Z,99.90
2018-07-05T02:42:48.321Z,99.90
2018-07-05T02:45:35.451Z,99.90
2018-07-05T02:48:22.965Z,99.90
2018-07-05T02:51:10.086Z,99.90
2018-07-05T02:53:58.639Z,99.90
2018-07-05T02:56:45.899Z,99.90
2018-07-05T02:59:33.298Z,99.90
2018-07-05T03:02:20.377Z,99.90
2018-07-05T03:05:08.769Z,99.90
2018-07-05T03:07:55.814Z,99.90
2018-07-05T03:10:43.372Z,99.90
2018-07-05T03:13:30.519Z,99.90
2018-07-05T03:16:18.030Z,99.90
2018-07-05T03:19:05.229Z,99.90
2018-07-05T03:21:52.714Z,99.90
2018-07-05T03:24:40.289Z,99.90
2018-07-05T03:27:28.000Z,99.90
2018-07-05T03:30:15.297Z,99.90
2018-07-05T03:33:02.831Z,99.90
2018-07-05T03:35:49.953Z,99.90
2018-07-05T03:38:38.517Z,99.90
2018-07-05T03:41:25.385Z,99.90
2018-07-05T03:44:13.356Z,99.90
2018-07-05T03:47:00.464Z,99.90
2018-07-05T03:49:48.002Z,99.90
2018-07-05T03:52:35.166Z,99.90
2018-07-05T03:55:24.128Z,99.90
2018-07-05T03:58:12.173Z,99.90
2018-07-05T04:00:59.732Z,99.90
2018-07-05T04:03:47.131Z,99.90
2018-07-05T04:06:35.017Z,99.90
2018-07-05T04:09:22.341Z,99.90
2018-07-05T04:12:10.074Z,99.90
2018-07-05T04:14:57.853Z,99.90
2018-07-05T04:17:45.333Z,99.90
2018-07-05T04:20:33.116Z,99.90
2018-07-05T04:23:21.015Z,99.90
2018-07-05T04:26:08.358Z,99.90
2018-07-05T04:28:57.166Z,99.90
2018-07-05T04:31:44.399Z,99.90
2018-07-05T04:34:32.156Z,99.90
2018-07-05T04:37:19.484Z,99.90
2018-07-05T04:40:07.182Z,99.90
2018-07-05T04:42:54.437Z,99.90
2018-07-05T04:45:42.373Z,99.90
2018-07-05T04:48:29.702Z,99.90
2018-07-05T04:51:17.432Z,99.90
2018-07-05T04:54:04.722Z,99.90
2018-07-05T04:56:53.069Z,99.90
2018-07-05T04:59:40.400Z,99.90
2018-07-05T05:02:28.183Z,99.90
2018-07-05T05:13:25.714Z,99.90
2018-07-05T05:16:13.162Z,99.90
2018-07-05T05:19:00.772Z,99.90
2018-07-05T05:21:48.404Z,99.90
2018-07-05T05:24:36.126Z,99.90
2018-07-05T05:27:24.826Z,99.90
2018-07-05T05:32:54.567Z,99.90
2018-07-05T05:35:43.116Z,99.90
2018-07-05T05:38:31.130Z,99.90
2018-07-05T05:41:18.828Z,99.90
2018-07-05T05:44:05.975Z,99.90
2018-07-05T05:46:53.580Z,99.90
2018-07-05T05:49:40.713Z,99.90
2018-07-05T05:52:29.961Z,99.90
2018-07-05T05:55:17.181Z,99.90
2018-07-05T05:58:05.390Z,99.90
2018-07-05T06:00:52.778Z,99.90
2018-07-05T06:03:40.364Z,99.90
2018-07-05T06:06:30.605Z,99.90
2018-07-05T06:09:19.433Z,99.90
2018-07-05T06:12:06.763Z,99.90
2018-07-05T06:14:54.536Z,99.90
2018-07-05T06:17:42.649Z,99.90
2018-07-05T06:20:30.395Z,99.90
2018-07-05T06:23:18.364Z,99.90
2018-07-05T06:26:05.563Z,99.90
2018-07-05T06:28:53.801Z,99.90
2018-07-05T06:31:40.967Z,99.90
2018-07-05T06:34:28.961Z,99.90
2018-07-05T06:37:16.098Z,99.90
2018-07-05T06:40:03.802Z,99.90
2018-07-05T06:45:34.379Z,99.90
2018-07-05T06:48:22.350Z,99.90
2018-07-05T06:51:10.126Z,99.90
2018-07-05T06:53:57.241Z,99.90
2018-07-05T06:56:44.928Z,99.90
2018-07-05T06:59:32.312Z,99.90
2018-07-05T07:02:19.884Z,99.90
2018-07-05T07:05:07.109Z,99.90
2018-07-05T07:07:54.681Z,99.90
2018-07-05T07:10:42.616Z,99.90
2018-07-05T07:13:30.318Z,99.90
2018-07-05T07:16:17.953Z,99.90
2018-07-05T07:19:05.548Z,99.90
2018-07-05T07:21:52.896Z,99.90
2018-07-05T07:24:40.658Z,99.90
2018-07-05T07:27:28.197Z,99.60
2018-07-05T07:30:15.853Z,98.70
2018-07-05T07:33:03.360Z,98.70
2018-07-05T07:35:53.397Z,98.40
2018-07-05T07:38:41.178Z,97.70
2018-07-05T07:43:58.827Z,96.60
2018-07-05T07:46:27.469Z,96.30
2018-07-05T07:48:56.341Z,95.50
2018-07-05T07:51:25.505Z,95.10
2018-07-05T07:53:54.185Z,95.00
2018-07-05T07:56:23.033Z,94.20
2018-07-05T07:58:51.518Z,94.30
2018-07-05T08:01:20.365Z,93.50
2018-07-05T08:03:48.902Z,94.30
2018-07-05T08:06:17.953Z,93.50
2018-07-05T08:08:46.536Z,93.00
2018-07-05T08:11:15.713Z,93.10
2018-07-05T08:13:44.625Z,92.70
2018-07-05T08:16:13.754Z,92.50
2018-07-05T08:18:43.149Z,91.70
2018-07-05T08:21:12.745Z,91.40
2018-07-05T08:23:41.546Z,90.70
2018-07-05T08:26:10.162Z,90.20
2018-07-05T08:28:38.796Z,88.90
2018-07-05T08:31:08.846Z,89.00
2018-07-05T08:33:37.704Z,88.30
2018-07-05T08:38:37.158Z,86.50
2018-07-05T08:41:06.666Z,85.40
2018-07-05T08:43:35.352Z,83.00
2018-07-05T08:46:04.037Z,82.80
2018-07-05T08:48:33.592Z,81.50
2018-07-05T08:51:03.833Z,82.10
2018-07-05T08:53:33.424Z,81.70
2018-07-05T08:56:02.877Z,80.80
2018-07-05T08:58:32.594Z,79.80
2018-07-05T09:01:02.720Z,80.70
2018-07-05T09:03:31.860Z,81.20
2018-07-05T09:06:02.439Z,79.70
2018-07-05T09:08:31.841Z,79.40
2018-07-05T09:11:01.246Z,79.50
2018-07-05T09:13:29.894Z,76.30
2018-07-05T09:15:58.574Z,76.10
2018-07-05T09:18:27.223Z,76.30
2018-07-05T09:20:56.670Z,74.70
2018-07-05T09:23:26.201Z,73.40
2018-07-05T09:25:55.426Z,73.40
2018-07-05T09:28:24.084Z,72.90
2018-07-05T09:30:53.599Z,73.00
2018-07-05T09:33:22.148Z,74.10
2018-07-05T09:35:51.053Z,75.80
2018-07-05T09:38:19.615Z,74.50
2018-07-05T09:40:48.098Z,73.30
2018-07-05T09:43:17.530Z,73.20
2018-07-05T09:45:46.650Z,70.50
2018-07-05T09:48:16.206Z,71.50
2018-07-05T09:50:44.813Z,70.00
2018-07-05T09:53:13.578Z,70.70
2018-07-05T09:55:42.177Z,68.80
2018-07-05T09:58:10.781Z,68.80
2018-07-05T10:00:45.174Z,69.10
2018-07-05T10:03:14.420Z,69.40
2018-07-05T10:05:44.731Z,68.30
2018-07-05T10:08:15.633Z,68.60
2018-07-05T10:10:46.061Z,68.30
2018-07-05T10:13:14.663Z,66.90
2018-07-05T10:15:43.141Z,67.60
2018-07-05T10:18:12.037Z,66.00
2018-07-05T10:20:40.603Z,66.80
2018-07-05T10:23:10.266Z,65.90
2018-07-05T10:25:39.016Z,65.80
2018-07-05T10:28:08.056Z,65.80
2018-07-05T10:30:49.445Z,65.50
2018-07-05T10:33:36.805Z,64.10
2018-07-05T10:36:11.996Z,64.90
2018-07-05T10:38:41.270Z,63.70
2018-07-05T10:41:22.638Z,63.30
2018-07-05T10:44:09.768Z,63.40
2018-07-05T10:46:57.431Z,63.90
2018-07-05T10:49:44.857Z,63.10
2018-07-05T10:52:31.953Z,62.60
2018-07-05T10:55:19.368Z,61.50
2018-07-05T10:58:06.381Z,60.80
2018-07-05T11:00:53.587Z,60.10
2018-07-05T11:03:41.065Z,60.60
2018-07-05T11:06:28.253Z,58.90
2018-07-05T11:09:15.884Z,59.30
2018-07-05T11:12:03.875Z,59.40
2018-07-05T11:14:52.254Z,58.80
2018-07-05T11:17:40.855Z,57.60
2018-07-05T11:20:28.526Z,56.90
2018-07-05T11:23:15.591Z,58.30
2018-07-05T11:26:03.411Z,58.10
2018-07-05T11:28:51.058Z,58.40
2018-07-05T11:31:39.680Z,57.20
2018-07-05T11:34:27.186Z,56.50
2018-07-05T11:37:14.556Z,57.00
2018-07-05T11:40:02.687Z,56.50
2018-07-05T11:42:50.266Z,57.20
2018-07-05T11:45:38.798Z,56.20
2018-07-05T11:48:26.393Z,55.80
2018-07-05T11:51:13.760Z,57.00
2018-07-05T11:54:02.028Z,55.80
2018-07-05T11:56:49.123Z,56.50
2018-07-05T11:59:37.274Z,56.70
2018-07-05T12:02:24.417Z,56.70
2018-07-05T12:05:12.626Z,56.50
2018-07-05T12:08:00.992Z,55.30
2018-07-05T12:10:48.602Z,56.40
2018-07-05T12:13:36.793Z,56.10
2018-07-05T12:16:24.968Z,55.40
2018-07-05T12:19:11.809Z,55.00
2018-07-05T12:21:59.886Z,55.80
2018-07-05T12:24:47.837Z,56.40
2018-07-05T12:27:36.041Z,55.60
2018-07-05T12:30:23.229Z,55.70
2018-07-05T12:33:13.699Z,56.20
2018-07-05T12:36:00.920Z,55.90
2018-07-05T12:38:48.965Z,55.50
2018-07-05T12:41:36.270Z,54.90
2018-07-05T12:44:24.686Z,54.90
2018-07-05T12:47:12.066Z,54.00
2018-07-05T12:50:01.385Z,54.20
2018-07-05T12:52:48.901Z,53.20
2018-07-05T12:55:36.535Z,52.30
2018-07-05T12:58:23.682Z,51.20
2018-07-05T13:01:11.665Z,51.90
2018-07-05T13:03:59.647Z,52.70
2018-07-05T13:06:47.308Z,51.80
2018-07-05T13:09:34.399Z,51.60
2018-07-05T13:12:21.972Z,51.30
2018-07-05T13:15:09.780Z,50.80
2018-07-05T13:17:57.520Z,49.80
2018-07-05T13:20:45.606Z,50.20
2018-07-05T13:23:33.333Z,50.20
2018-07-05T13:26:20.579Z,49.00
2018-07-05T13:29:08.201Z,48.80
2018-07-05T13:31:54.946Z,50.10
2018-07-05T13:34:42.541Z,49.40
2018-07-05T13:37:29.878Z,49.40
2018-07-05T13:40:17.070Z,49.30
2018-07-05T13:43:04.670Z,49.30
2018-07-05T13:45:52.610Z,48.70
2018-07-05T13:51:22.509Z,47.70
2018-07-05T13:54:10.515Z,47.90
2018-07-05T13:56:59.741Z,47.90
2018-07-05T13:59:47.154Z,47.60
2018-07-05T14:05:15.920Z,48.90
2018-07-05T14:08:04.318Z,48.70
2018-07-05T14:10:52.467Z,48.50
2018-07-05T14:13:41.262Z,48.00
2018-07-05T14:16:29.658Z,47.40
2018-07-05T14:19:18.082Z,47.50
2018-07-05T14:22:06.915Z,47.50
2018-07-05T14:24:54.488Z,47.60
2018-07-05T14:27:41.974Z,47.30
2018-07-05T14:30:30.971Z,46.70
2018-07-05T14:36:00.799Z,47.80
2018-07-05T14:38:49.476Z,48.90
2018-07-05T14:41:39.271Z,48.90
2018-07-05T14:44:26.886Z,48.70
2018-07-05T14:47:14.658Z,48.60
2018-07-05T14:50:03.719Z,48.90
2018-07-05T14:52:51.038Z,48.70
2018-07-05T14:55:39.886Z,48.60
2018-07-05T14:58:28.253Z,48.30
2018-07-05T15:01:15.612Z,49.10
2018-07-05T15:04:04.134Z,48.00
2018-07-05T15:06:52.227Z,48.40
2018-07-05T15:09:40.869Z,48.10
2018-07-05T15:15:09.682Z,49.60
2018-07-05T15:17:56.903Z,49.50
2018-07-05T15:20:44.022Z,49.40
2018-07-05T15:23:31.462Z,49.20
2018-07-05T15:26:19.102Z,49.60
2018-07-05T15:29:06.394Z,50.00
2018-07-05T15:34:37.185Z,50.70
2018-07-05T15:37:25.726Z,51.10
2018-07-05T15:40:13.719Z,51.70
2018-07-05T15:43:01.278Z,51.30
2018-07-05T15:45:48.900Z,50.90
2018-07-05T15:48:37.515Z,52.10
2018-07-05T15:51:24.872Z,52.50
2018-07-05T15:54:12.474Z,53.10
2018-07-05T15:56:59.717Z,53.50
2018-07-05T15:59:49.103Z,54.10
2018-07-05T16:02:36.210Z,55.10
2018-07-05T16:05:25.622Z,55.70
2018-07-05T16:08:13.647Z,55.90
2018-07-05T16:11:04.188Z,56.10
2018-07-05T16:13:51.414Z,56.40
2018-07-05T16:16:38.957Z,56.30
2018-07-05T16:19:26.447Z,56.20
2018-07-05T16:22:14.184Z,56.20
2018-07-05T16:25:01.606Z,56.30
2018-07-05T16:27:50.303Z,56.70
2018-07-05T16:30:37.726Z,57.00
2018-07-05T16:33:24.891Z,57.20
2018-07-05T16:36:12.353Z,57.30
2018-07-05T16:41:41.715Z,57.80
2018-07-05T16:44:29.665Z,58.20
2018-07-05T16:47:17.394Z,58.50
2018-07-05T16:50:05.022Z,58.70
2018-07-05T16:52:52.479Z,58.80
2018-07-05T16:55:40.904Z,59.10
2018-07-05T16:58:28.567Z,58.90
2018-07-05T17:03:58.846Z,59.20
2018-07-05T17:06:47.540Z,59.40
2018-07-05T17:09:36.394Z,59.30
2018-07-05T17:12:24.223Z,59.40
2018-07-05T17:15:11.869Z,59.20
2018-07-05T17:18:00.808Z,59.20
2018-07-05T17:20:48.031Z,59.00
2018-07-05T17:23:35.703Z,58.40
2018-07-05T17:26:23.895Z,58.90
2018-07-05T17:29:12.507Z,59.00
2018-07-05T17:32:00.627Z,59.90
2018-07-05T17:34:51.142Z,60.30
2018-07-05T17:37:39.927Z,61.20
2018-07-05T17:43:11.020Z,62.30
2018-07-05T17:46:00.179Z,62.70
2018-07-05T17:48:50.357Z,63.20
2018-07-05T17:51:40.179Z,63.50
2018-07-05T17:54:27.394Z,64.10
2018-07-05T17:57:16.254Z,64.50
2018-07-05T18:00:03.370Z,65.80
2018-07-05T18:02:51.308Z,66.50
2018-07-05T18:05:38.734Z,66.50
2018-07-05T18:08:30.344Z,67.60
2018-07-05T18:11:18.074Z,68.30
2018-07-05T18:14:06.977Z,68.60
2018-07-05T18:16:54.466Z,69.50
2018-07-05T18:19:43.270Z,69.50
2018-07-05T18:22:31.833Z,69.70
2018-07-05T18:25:22.575Z,69.40
2018-07-05T18:28:10.829Z,69.20
2018-07-05T18:31:02.261Z,69.80
2018-07-05T18:33:49.710Z,70.20
2018-07-05T18:36:37.309Z,70.50
2018-07-05T18:39:24.865Z,70.30
2018-07-05T18:42:14.131Z,71.10
2018-07-05T18:45:03.059Z,71.10
2018-07-05T18:47:51.267Z,71.10
2018-07-05T18:50:38.941Z,71.30
2018-07-05T18:53:28.204Z,71.10
2018-07-05T18:56:15.985Z,71.30
2018-07-05T18:59:06.041Z,72.30
2018-07-05T19:01:54.499Z,72.20
2018-07-05T19:04:48.982Z,72.70
2018-07-05T19:07:53.825Z,72.90
2018-07-05T19:10:42.465Z,73.50
2018-07-05T19:13:30.859Z,74.00
2018-07-05T19:16:19.572Z,74.40
2018-07-05T19:21:51.776Z,76.40
2018-07-05T19:24:39.127Z,75.90
2018-07-05T19:27:27.222Z,76.30
2018-07-05T19:30:15.005Z,77.60
2018-07-05T19:33:03.357Z,78.10
2018-07-05T19:35:51.782Z,77.50
2018-07-05T19:38:39.213Z,77.60
2018-07-05T19:41:26.874Z,79.70
2018-07-05T19:44:14.809Z,79.40
2018-07-05T19:47:03.860Z,79.90
2018-07-05T19:50:02.134Z,80.70
2018-07-05T19:52:50.837Z,81.10
2018-07-05T19:55:40.505Z,81.40
